Time;durP1;ratioP1;P1;durP2;ratioP2;P2;SDS_P1;SDS_P2;PMS_P1;PMS_P2;Temp;Humidity;BMP_temperature;BMP_pressure;BME280_temperature;BME280_humidity;BME280_pressure;Samples;Min_cycle;Max_cycle;Signal;HPM_P1;HPM_P2
2021/12/29 00:01:32;;;;;;;300.33;45.75;;;6.60;99.90;;;;;;5111591;28;20152;-87
2021/12/29 00:03:58;;;;;;;326.40;46.30;;;6.60;99.90;;;;;;5112045;28;20047;-88
2021/12/29 00:06:23;;;;;;;282.52;44.53;;;6.90;99.90;;;;;;5119345;28;20048;-86
2021/12/29 00:08:49;;;;;;;138.50;35.90;;;6.60;99.90;;;;;;5112657;28;20035;-87
2021/12/29 00:11:15;;;;;;;177.15;37.97;;;6.60;99.90;;;;;;5111192;28;20054;-88
2021/12/29 00:13:40;;;;;;;204.75;38.13;;;6.60;99.90;;;;;;5095112;28;20144;-88
2021/12/29 00:16:06;;;;;;;189.80;37.63;;;6.60;99.90;;;;;;5112861;28;20537;-88
2021/12/29 00:18:33;;;;;;;157.43;34.63;;;6.60;99.90;;;;;;5095182;28;20058;-87
2021/12/29 00:20:59;;;;;;;139.43;32.25;;;6.60;99.90;;;;;;5096113;28;20055;-86
2021/12/29 00:23:25;;;;;;;149.18;32.08;;;6.70;99.90;;;;;;5094025;28;20062;-87
2021/12/29 00:25:51;;;;;;;165.70;33.17;;;6.70;99.90;;;;;;5094371;28;20047;-89
2021/12/29 00:28:16;;;;;;;170.73;32.10;;;6.60;99.90;;;;;;5111149;28;20051;-89
2021/12/29 00:30:42;;;;;;;134.45;30.08;;;6.60;99.90;;;;;;5111508;28;20059;-88
2021/12/29 00:33:08;;;;;;;168.35;32.00;;;6.60;99.90;;;;;;5077048;28;20551;-87
2021/12/29 00:35:35;;;;;;;163.93;31.15;;;6.60;99.90;;;;;;5093751;28;20126;-87
2021/12/29 00:38:02;;;;;;;100.65;25.05;;;6.60;99.90;;;;;;5077452;28;20047;-87
2021/12/29 00:40:28;;;;;;;106.47;26.50;;;7.00;99.90;;;;;;5110076;28;20060;-87
2021/12/29 00:42:54;;;;;;;110.03;25.67;;;6.90;99.90;;;;;;5094430;28;20490;-89
2021/12/29 00:45:20;;;;;;;124.05;27.20;;;6.90;99.90;;;;;;5110384;28;20047;-87
2021/12/29 00:47:46;;;;;;;92.47;25.05;;;6.50;99.90;;;;;;5094002;28;20043;-88
2021/12/29 00:50:16;;;;;;;113.10;25.60;;;6.50;99.90;;;;;;5094239;28;20066;-88
2021/12/29 00:52:44;;;;;;;87.38;22.40;;;6.50;99.90;;;;;;5111499;28;20140;-87
2021/12/29 00:55:10;;;;;;;127.82;26.55;;;6.40;99.90;;;;;;5079044;28;20047;-88
2021/12/29 00:57:36;;;;;;;107.00;24.90;;;6.40;99.90;;;;;;5100039;28;20047;-88
2021/12/29 01:00:03;;;;;;;92.85;22.77;;;6.50;99.90;;;;;;5115465;28;20356;-88
2021/12/29 01:02:29;;;;;;;90.85;21.83;;;6.50;99.90;;;;;;5094749;28;20051;-87
2021/12/29 01:04:54;;;;;;;107.97;23.45;;;6.60;99.90;;;;;;5094053;28;20047;-88
2021/12/29 01:07:20;;;;;;;98.07;21.23;;;6.50;99.90;;;;;;5110230;28;20051;-87
2021/12/29 01:09:46;;;;;;;85.32;20.50;;;6.50;99.90;;;;;;5093833;28;20048;-88
2021/12/29 01:12:12;;;;;;;69.05;18.73;;;6.50;99.90;;;;;;5110734;28;20122;-88
2021/12/29 01:14:41;;;;;;;57.13;17.67;;;6.50;99.90;;;;;;5093274;28;20125;-88
2021/12/29 01:17:07;;;;;;;106.47;21.88;;;6.50;99.90;;;;;;5111957;28;20445;-89
2021/12/29 01:19:33;;;;;;;88.10;20.17;;;6.50;99.90;;;;;;5094376;28;20055;-87
2021/12/29 01:21:59;;;;;;;96.90;20.23;;;6.50;99.90;;;;;;5078309;28;20396;-88
2021/12/29 01:24:30;;;;;;;85.72;20.88;;;6.90;99.90;;;;;;5109883;28;20055;-88
2021/12/29 01:26:56;;;;;;;97.60;20.45;;;6.50;99.90;;;;;;5094817;28;20059;-88
2021/12/29 01:29:22;;;;;;;93.78;21.15;;;6.50;99.90;;;;;;5109840;28;20072;-86
2021/12/29 01:31:47;;;;;;;104.70;20.42;;;6.50;99.90;;;;;;5076561;28;20379;-89
2021/12/29 01:34:13;;;;;;;130.65;22.15;;;6.60;99.90;;;;;;5110259;28;20050;-88
2021/12/29 01:36:39;;;;;;;117.22;21.20;;;6.50;99.90;;;;;;5109588;28;20040;-89
2021/12/29 01:39:07;;;;;;;144.70;23.55;;;6.50;99.90;;;;;;5093587;28;20058;-88
2021/12/29 01:41:32;;;;;;;144.48;23.48;;;6.50;99.90;;;;;;5092925;28;20464;-88
2021/12/29 01:43:58;;;;;;;159.15;24.52;;;6.50;99.90;;;;;;5093363;28;20047;-88
2021/12/29 01:46:24;;;;;;;184.10;26.42;;;6.60;99.90;;;;;;5109587;28;20384;-88
2021/12/29 01:48:50;;;;;;;183.65;25.17;;;7.20;99.90;;;;;;5110702;28;20189;-89
2021/12/29 01:51:18;;;;;;;152.93;24.50;;;6.60;99.90;;;;;;5109899;28;20127;-88
2021/12/29 01:53:49;;;;;;;215.57;27.30;;;6.70;99.90;;;;;;5093172;28;20044;-89
2021/12/29 01:56:15;;;;;;;202.38;26.85;;;6.60;99.90;;;;;;5094446;28;20083;-88
2021/12/29 01:58:41;;;;;;;276.55;29.52;;;6.70;99.90;;;;;;5092904;28;20552;-88
2021/12/29 02:01:06;;;;;;;197.32;27.88;;;6.80;99.90;;;;;;5093014;28;20181;-88
2021/12/29 02:03:32;;;;;;;242.25;28.42;;;6.60;99.90;;;;;;5092515;28;20083;-87
2021/12/29 02:05:58;;;;;;;207.32;27.33;;;6.80;99.90;;;;;;5092895;28;20403;-89
2021/12/29 02:08:24;;;;;;;208.73;28.50;;;6.70;99.90;;;;;;5093169;28;20156;-89
2021/12/29 02:10:51;;;;;;;220.88;29.45;;;6.70;99.90;;;;;;5094595;28;20047;-87
2021/12/29 02:13:17;;;;;;;212.27;28.80;;;6.70;99.90;;;;;;5107500;28;20611;-88
2021/12/29 02:15:43;;;;;;;238.05;29.98;;;6.70;99.90;;;;;;5114210;27;20044;-87
2021/12/29 02:18:14;;;;;;;295.60;32.80;;;6.70;99.90;;;;;;5097112;28;20047;-88
2021/12/29 02:20:41;;;;;;;229.95;29.42;;;6.70;99.90;;;;;;5097400;28;20110;-88
2021/12/29 02:23:17;;;;;;;298.13;32.13;;;6.80;99.90;;;;;;5097077;28;20052;-88
2021/12/29 02:25:53;;;;;;;201.32;27.83;;;6.80;99.90;;;;;;5098387;28;20448;-87
2021/12/29 02:28:33;;;;;;;235.98;29.17;;;6.90;99.90;;;;;;5097006;28;20467;-88
2021/12/29 02:30:59;;;;;;;216.63;27.55;;;6.80;99.90;;;;;;5096770;28;20117;-88
2021/12/29 02:33:25;;;;;;;226.02;27.65;;;6.80;99.90;;;;;;5079938;28;20039;-88
2021/12/29 02:35:51;;;;;;;213.70;28.40;;;6.80;99.90;;;;;;5114138;28;20051;-88
2021/12/29 02:38:28;;;;;;;163.10;26.02;;;6.80;99.90;;;;;;5114553;28;20498;-87
2021/12/29 02:40:57;;;;;;;173.02;24.05;;;6.90;99.90;;;;;;5097201;28;20130;-90
2021/12/29 02:43:23;;;;;;;167.68;23.35;;;6.90;99.90;;;;;;5097885;28;20100;-89
2021/12/29 02:45:51;;;;;;;157.05;23.77;;;6.90;99.90;;;;;;5113636;28;20739;-88
2021/12/29 02:48:17;;;;;;;133.43;21.73;;;6.90;99.90;;;;;;5114134;28;20479;-88
2021/12/29 02:50:44;;;;;;;135.88;20.20;;;7.00;99.90;;;;;;5095837;28;20439;-87
2021/12/29 02:53:12;;;;;;;115.30;18.90;;;6.90;99.90;;;;;;5079612;28;20396;-89
2021/12/29 02:55:38;;;;;;;108.35;18.52;;;6.90;99.90;;;;;;5095617;28;20051;-87
2021/12/29 02:58:03;;;;;;;113.85;17.30;;;7.00;99.90;;;;;;5096533;28;20059;-87
2021/12/29 03:00:29;;;;;;;109.63;17.05;;;7.00;99.90;;;;;;5096283;28;20112;-88
2021/12/29 03:02:55;;;;;;;102.93;16.73;;;7.00;99.90;;;;;;5095550;28;20051;-89
2021/12/29 03:05:23;;;;;;;80.65;14.35;;;7.00;99.90;;;;;;5112839;28;20091;-87
2021/12/29 03:07:49;;;;;;;88.95;15.38;;;7.00;99.90;;;;;;5095986;28;20051;-88
2021/12/29 03:10:15;;;;;;;72.10;14.38;;;7.00;99.90;;;;;;5112899;28;20044;-87
2021/12/29 03:12:41;;;;;;;73.82;14.57;;;7.00;99.90;;;;;;5095563;28;20047;-88
2021/12/29 03:15:07;;;;;;;79.13;14.38;;;7.00;99.90;;;;;;5112841;28;20368;-88
2021/12/29 03:17:33;;;;;;;78.03;15.52;;;7.10;99.90;;;;;;5129587;27;20057;-89
2021/12/29 03:19:59;;;;;;;84.15;15.43;;;7.00;99.90;;;;;;5079027;28;20051;-87
2021/12/29 03:22:24;;;;;;;75.72;15.65;;;7.10;99.90;;;;;;5112868;28;20052;-88
2021/12/29 03:24:50;;;;;;;93.65;16.58;;;7.10;99.90;;;;;;5094881;28;20087;-88
2021/12/29 03:27:16;;;;;;;89.25;16.30;;;7.10;99.90;;;;;;5096250;28;20047;-88
2021/12/29 03:29:41;;;;;;;98.60;16.70;;;7.10;99.90;;;;;;5112099;28;20420;-88
2021/12/29 03:32:09;;;;;;;100.35;17.40;;;7.10;99.90;;;;;;5078766;28;20055;-88
2021/12/29 03:34:35;;;;;;;110.45;18.38;;;7.20;99.90;;;;;;5095879;28;20450;-87
2021/12/29 03:37:01;;;;;;;109.57;18.42;;;7.20;99.90;;;;;;5095046;28;20131;-88
2021/12/29 03:39:27;;;;;;;109.10;20.15;;;7.20;99.90;;;;;;5112528;28;20487;-87
2021/12/29 03:41:54;;;;;;;117.05;20.48;;;7.10;99.90;;;;;;5111255;28;20078;-88
2021/12/29 03:44:19;;;;;;;119.50;21.63;;;7.10;99.90;;;;;;5112257;28;20043;-87
2021/12/29 03:46:45;;;;;;;118.13;21.52;;;7.10;99.90;;;;;;5094610;28;20058;-88
2021/12/29 03:49:10;;;;;;;123.93;23.00;;;7.20;99.90;;;;;;5095421;28;20048;-88
2021/12/29 03:51:36;;;;;;;132.07;22.55;;;7.20;99.90;;;;;;5112236;28;20097;-88
2021/12/29 03:54:04;;;;;;;132.25;23.80;;;7.30;99.90;;;;;;5111558;28;20048;-89
2021/12/29 03:56:31;;;;;;;128.68;23.05;;;7.20;99.90;;;;;;5078855;28;20051;-88
2021/12/29 03:58:57;;;;;;;117.65;25.00;;;7.20;99.90;;;;;;5094912;28;20099;-88
2021/12/29 04:01:25;;;;;;;142.05;25.15;;;8.00;99.90;;;;;;5113872;28;20126;-88
2021/12/29 04:03:52;;;;;;;138.02;24.90;;;7.30;99.90;;;;;;5113110;28;20503;-89
2021/12/29 04:06:19;;;;;;;125.35;25.55;;;7.30;99.90;;;;;;5079021;28;20051;-89
2021/12/29 04:08:45;;;;;;;138.52;26.25;;;7.30;99.90;;;;;;5094375;28;20078;-88
2021/12/29 04:11:12;;;;;;;151.57;28.15;;;7.30;99.90;;;;;;5095243;28;20502;-89
2021/12/29 04:13:37;;;;;;;144.82;28.25;;;7.40;99.90;;;;;;5112302;28;20062;-89
2021/12/29 04:16:05;;;;;;;146.90;28.90;;;7.30;99.90;;;;;;5111676;28;20904;-89
2021/12/29 04:18:31;;;;;;;139.00;27.90;;;7.30;99.90;;;;;;5100529;28;20108;-89
2021/12/29 04:20:58;;;;;;;173.20;33.17;;;7.40;99.90;;;;;;5115708;28;20437;-89
2021/12/29 04:23:26;;;;;;;139.77;29.95;;;7.40;99.90;;;;;;5111457;28;20046;-88
2021/12/29 04:25:54;;;;;;;151.20;31.55;;;7.40;99.90;;;;;;5094335;28;20130;-88
2021/12/29 04:28:22;;;;;;;174.85;32.92;;;7.50;99.90;;;;;;5111443;28;20043;-88
2021/12/29 04:30:52;;;;;;;170.82;33.30;;;7.40;99.90;;;;;;5094198;28;20449;-88
2021/12/29 04:33:18;;;;;;;156.30;31.02;;;7.40;99.90;;;;;;5094893;28;20087;-88
2021/12/29 04:35:44;;;;;;;158.15;33.55;;;7.40;99.90;;;;;;5110746;28;20087;-84
2021/12/29 04:38:10;;;;;;;140.70;30.98;;;7.40;99.90;;;;;;5111114;28;20104;-89
2021/12/29 04:40:36;;;;;;;151.15;33.08;;;7.40;99.90;;;;;;5094371;28;20043;-88
2021/12/29 04:43:01;;;;;;;155.40;33.92;;;7.50;99.90;;;;;;5110909;28;20062;-88
2021/12/29 04:45:27;;;;;;;174.23;34.58;;;7.40;99.90;;;;;;5094242;28;20055;-89
2021/12/29 04:47:53;;;;;;;164.80;33.83;;;7.40;99.90;;;;;;5093655;28;20044;-88
2021/12/29 04:50:36;;;;;;;146.18;32.40;;;7.50;99.90;;;;;;5093857;28;20118;-88
2021/12/29 04:53:02;;;;;;;157.15;34.17;;;7.50;99.90;;;;;;5095842;28;20063;-90
2021/12/29 04:55:28;;;;;;;139.70;31.45;;;7.40;99.90;;;;;;5093718;28;20039;-88
2021/12/29 04:57:54;;;;;;;136.52;33.63;;;7.50;99.90;;;;;;5093250;28;20547;-88
2021/12/29 05:00:21;;;;;;;158.90;35.85;;;7.50;99.90;;;;;;5110834;28;20090;-88
2021/12/29 05:02:47;;;;;;;136.25;33.65;;;7.50;99.90;;;;;;5094191;28;20044;-89
2021/12/29 05:05:38;;;;;;;160.43;35.60;;;7.40;99.90;;;;;;5093664;28;20082;-89
2021/12/29 05:10:50;;;;;;;152.95;36.20;;;7.50;99.90;;;;;;5113403;27;20051;-85
2021/12/29 05:13:16;;;;;;;144.52;35.50;;;7.50;99.90;;;;;;5077039;28;20043;-89
2021/12/29 05:15:42;;;;;;;155.95;34.08;;;7.50;99.90;;;;;;5093786;28;20134;-89
2021/12/29 05:18:08;;;;;;;139.50;33.45;;;7.40;99.90;;;;;;5093310;28;20099;-88
2021/12/29 05:20:33;;;;;;;138.82;33.88;;;7.50;99.90;;;;;;5094040;28;20043;-88
2021/12/29 05:22:59;;;;;;;137.43;33.42;;;7.50;99.90;;;;;;5110336;28;20518;-89
2021/12/29 05:25:25;;;;;;;144.80;33.85;;;7.70;99.90;;;;;;5110800;28;20428;-89
2021/12/29 05:27:51;;;;;;;153.27;35.22;;;7.50;99.90;;;;;;5093943;28;20052;-83
2021/12/29 05:30:17;;;;;;;144.43;32.65;;;7.50;99.90;;;;;;5093781;28;20548;-88
2021/12/29 05:32:43;;;;;;;134.15;31.75;;;7.50;99.90;;;;;;5094016;28;20098;-87
2021/12/29 05:35:09;;;;;;;145.55;33.67;;;7.50;99.90;;;;;;5093426;28;20056;-86
2021/12/29 05:37:34;;;;;;;117.22;31.85;;;7.50;99.90;;;;;;5093924;28;20096;-88
2021/12/29 05:40:00;;;;;;;122.82;31.73;;;7.50;99.90;;;;;;5093346;28;20083;-88
2021/12/29 05:42:25;;;;;;;124.85;32.28;;;7.60;99.90;;;;;;5093561;28;20055;-89
2021/12/29 05:44:51;;;;;;;139.65;33.08;;;7.50;99.90;;;;;;5111741;28;20123;-89
2021/12/29 05:47:17;;;;;;;139.57;32.97;;;7.50;99.90;;;;;;5109765;28;20688;-88
2021/12/29 05:49:42;;;;;;;136.20;32.78;;;7.50;99.90;;;;;;5115527;28;20052;-88
2021/12/29 05:52:08;;;;;;;145.15;32.85;;;7.50;99.90;;;;;;5113938;28;20105;-87
2021/12/29 05:54:34;;;;;;;118.35;30.75;;;7.50;99.90;;;;;;5080629;28;20039;-88
2021/12/29 05:57:00;;;;;;;126.05;32.33;;;7.50;99.90;;;;;;5096940;28;20052;-88
2021/12/29 05:59:25;;;;;;;118.13;30.58;;;7.50;99.90;;;;;;5080363;28;20055;-88
2021/12/29 06:01:51;;;;;;;145.93;32.22;;;7.50;99.90;;;;;;5114250;28;20051;-89
2021/12/29 06:04:16;;;;;;;142.93;32.28;;;7.50;99.90;;;;;;5096742;28;20043;-88
2021/12/29 06:06:42;;;;;;;123.70;30.90;;;7.50;99.90;;;;;;5114182;28;20039;-89
2021/12/29 06:09:08;;;;;;;114.50;30.73;;;7.40;99.90;;;;;;5114811;28;20051;-89
2021/12/29 06:11:34;;;;;;;118.88;30.30;;;8.60;99.90;;;;;;5097440;28;20392;-89
2021/12/29 06:13:59;;;;;;;130.23;32.40;;;7.50;99.90;;;;;;5113583;28;20048;-84
2021/12/29 06:16:27;;;;;;;126.35;30.95;;;7.50;99.90;;;;;;5131317;27;20387;-88
2021/12/29 06:18:53;;;;;;;126.60;32.63;;;7.50;99.90;;;;;;5114003;28;20039;-88
2021/12/29 06:21:19;;;;;;;109.47;29.58;;;7.60;99.90;;;;;;5079211;28;20064;-89
2021/12/29 06:23:45;;;;;;;131.07;31.63;;;7.60;99.90;;;;;;5115797;28;20052;-88
2021/12/29 06:26:11;;;;;;;127.10;32.80;;;7.50;99.90;;;;;;5103427;28;20051;-89
2021/12/29 06:28:37;;;;;;;132.05;31.55;;;7.60;99.90;;;;;;5096984;28;20058;-89
2021/12/29 06:31:03;;;;;;;143.07;33.53;;;7.60;99.90;;;;;;5079491;28;20035;-88
2021/12/29 06:33:28;;;;;;;121.00;29.70;;;7.50;99.90;;;;;;5096849;28;20395;-89
2021/12/29 06:35:54;;;;;;;126.93;30.98;;;7.50;99.90;;;;;;5113798;28;20047;-89
2021/12/29 06:38:19;;;;;;;137.10;30.92;;;7.50;99.90;;;;;;5114036;28;20050;-88
2021/12/29 06:40:45;;;;;;;136.70;31.38;;;7.50;99.90;;;;;;5114048;28;20067;-89
2021/12/29 06:43:11;;;;;;;124.72;31.52;;;7.50;99.90;;;;;;5096563;28;20055;-89
2021/12/29 06:45:36;;;;;;;126.93;31.60;;;7.50;99.90;;;;;;5114073;28;20154;-88
2021/12/29 06:48:02;;;;;;;118.95;29.73;;;7.50;99.90;;;;;;5097008;28;20036;-85
2021/12/29 06:50:28;;;;;;;121.65;29.83;;;7.50;99.90;;;;;;5096444;28;20131;-89
2021/12/29 06:52:54;;;;;;;119.78;28.50;;;7.60;99.90;;;;;;5096684;28;20051;-90
2021/12/29 06:55:20;;;;;;;121.72;29.65;;;7.50;99.90;;;;;;5112516;28;20184;-89
2021/12/29 06:57:45;;;;;;;131.13;30.58;;;7.50;99.90;;;;;;5096068;28;20142;-90
2021/12/29 07:00:11;;;;;;;136.82;30.40;;;8.20;99.90;;;;;;5112529;28;20059;-88
2021/12/29 07:02:37;;;;;;;123.47;30.25;;;7.60;99.90;;;;;;5113842;27;20104;-91
2021/12/29 07:05:03;;;;;;;122.22;28.63;;;7.50;99.90;;;;;;5113661;28;20101;-89
2021/12/29 07:07:29;;;;;;;134.45;29.98;;;7.60;99.90;;;;;;5131115;27;20036;-89
2021/12/29 07:09:55;;;;;;;143.40;29.20;;;7.60;99.90;;;;;;5112557;28;20054;-89
2021/12/29 07:12:20;;;;;;;131.40;29.27;;;7.60;99.90;;;;;;5112769;28;20187;-87
2021/12/29 07:14:46;;;;;;;130.25;29.38;;;7.60;99.90;;;;;;5112673;28;20589;-89
2021/12/29 07:17:12;;;;;;;123.28;28.60;;;7.70;99.90;;;;;;5095552;28;20395;-88
2021/12/29 07:19:37;;;;;;;121.68;28.85;;;7.60;99.90;;;;;;5112908;28;20046;-88
2021/12/29 07:22:04;;;;;;;144.05;29.15;;;7.50;99.90;;;;;;5113174;28;20117;-89
2021/12/29 07:24:30;;;;;;;138.18;28.80;;;7.60;99.90;;;;;;5112507;28;20047;-89
2021/12/29 07:26:55;;;;;;;109.55;26.02;;;7.50;99.90;;;;;;5096381;28;20085;-89
2021/12/29 07:29:21;;;;;;;136.13;29.05;;;8.20;99.90;;;;;;5095350;28;20055;-89
2021/12/29 07:31:47;;;;;;;126.55;29.45;;;7.90;99.90;;;;;;5095842;28;20064;-87
2021/12/29 07:34:12;;;;;;;113.25;27.65;;;7.60;99.90;;;;;;5095093;28;20524;-89
2021/12/29 07:36:38;;;;;;;121.85;28.20;;;7.50;99.90;;;;;;5129904;27;20105;-89
2021/12/29 07:39:04;;;;;;;152.48;29.80;;;7.60;99.90;;;;;;5112683;28;20077;-89
2021/12/29 07:41:29;;;;;;;139.02;29.38;;;7.50;99.90;;;;;;5111500;28;20563;-89
2021/12/29 07:43:56;;;;;;;134.57;29.58;;;7.50;99.90;;;;;;5112188;28;20052;-90
2021/12/29 07:46:22;;;;;;;145.55;27.95;;;7.50;99.90;;;;;;5112013;28;20449;-89
2021/12/29 07:48:48;;;;;;;180.30;30.73;;;7.50;99.90;;;;;;5095371;28;20108;-89
2021/12/29 07:51:15;;;;;;;135.10;28.42;;;7.60;99.90;;;;;;5111591;28;20043;-89
2021/12/29 07:53:40;;;;;;;133.25;27.48;;;7.60;99.90;;;;;;5078372;28;20087;-90
2021/12/29 07:56:06;;;;;;;141.18;28.80;;;7.50;99.90;;;;;;5095137;28;20105;-89
2021/12/29 07:58:33;;;;;;;159.15;28.70;;;7.50;99.90;;;;;;5111565;28;20196;-88
2021/12/29 08:00:59;;;;;;;141.65;28.33;;;7.60;99.90;;;;;;5095200;28;20054;-89
2021/12/29 08:03:24;;;;;;;147.00;29.63;;;7.50;99.90;;;;;;5077662;28;20044;-88
2021/12/29 08:05:50;;;;;;;153.13;29.17;;;7.60;99.90;;;;;;5094875;28;20050;-89
2021/12/29 08:08:16;;;;;;;124.28;27.70;;;7.60;99.90;;;;;;5111335;28;20054;-87
2021/12/29 08:10:41;;;;;;;176.38;29.35;;;7.50;99.90;;;;;;5110880;28;20051;-90
2021/12/29 08:13:07;;;;;;;130.27;26.88;;;7.60;99.90;;;;;;5111645;28;20051;-88
2021/12/29 08:15:33;;;;;;;145.85;27.33;;;7.60;99.90;;;;;;5093902;28;20052;-88
2021/12/29 08:18:01;;;;;;;147.30;28.23;;;7.60;99.90;;;;;;5094544;28;20134;-88
2021/12/29 08:20:27;;;;;;;133.30;26.02;;;7.70;99.90;;;;;;5094390;28;20104;-89
2021/12/29 08:22:53;;;;;;;128.93;27.55;;;7.60;99.90;;;;;;5111615;28;20055;-87
2021/12/29 08:25:19;;;;;;;112.38;24.63;;;7.60;99.90;;;;;;5111129;28;20057;-89
2021/12/29 08:27:45;;;;;;;124.57;27.65;;;7.70;99.90;;;;;;5111748;28;20079;-89
2021/12/29 08:30:11;;;;;;;142.35;26.75;;;7.60;99.90;;;;;;5104828;28;20027;-88
2021/12/29 08:32:36;;;;;;;157.55;29.15;;;7.60;99.90;;;;;;5129721;28;20051;-88
2021/12/29 08:35:03;;;;;;;161.38;28.73;;;7.70;99.90;;;;;;5112339;28;20143;-89
2021/12/29 08:37:29;;;;;;;201.77;30.40;;;7.70;99.90;;;;;;5112755;28;20180;-89
2021/12/29 08:39:55;;;;;;;186.65;29.75;;;7.70;99.90;;;;;;5111767;28;20495;-89
2021/12/29 08:42:24;;;;;;;230.07;31.23;;;7.70;99.90;;;;;;5093443;28;20047;-90
2021/12/29 08:44:50;;;;;;;253.13;34.15;;;7.70;99.90;;;;;;5112354;28;20052;-90
2021/12/29 08:47:16;;;;;;;245.70;34.35;;;7.70;99.90;;;;;;5111070;28;20043;-89
2021/12/29 08:49:42;;;;;;;203.80;31.88;;;7.70;99.90;;;;;;5110645;28;20388;-89
2021/12/29 08:52:07;;;;;;;304.77;35.42;;;7.70;99.90;;;;;;5077170;28;20078;-87
2021/12/29 08:54:34;;;;;;;193.18;31.05;;;7.80;99.90;;;;;;5093003;28;20069;-88
2021/12/29 08:57:00;;;;;;;286.90;34.67;;;7.80;99.90;;;;;;5093859;28;20456;-87
2021/12/29 08:59:26;;;;;;;228.23;32.63;;;7.80;99.90;;;;;;5110299;28;20106;-89
2021/12/29 09:01:52;;;;;;;204.25;32.58;;;7.80;99.90;;;;;;5110566;28;20056;-88
2021/12/29 09:04:17;;;;;;;230.73;34.55;;;7.80;99.90;;;;;;5110392;28;20039;-88
2021/12/29 09:06:43;;;;;;;175.10;31.50;;;7.80;99.90;;;;;;5110199;28;20082;-87
2021/12/29 09:09:08;;;;;;;170.82;31.83;;;7.80;99.90;;;;;;5111843;28;20089;-89
2021/12/29 09:11:34;;;;;;;171.80;31.52;;;7.80;99.90;;;;;;5111280;28;20047;-84
2021/12/29 09:14:00;;;;;;;220.60;33.95;;;7.90;99.90;;;;;;5111667;28;20083;-86
2021/12/29 09:16:28;;;;;;;177.57;32.00;;;8.50;99.90;;;;;;5092541;28;20043;-87
2021/12/29 09:18:54;;;;;;;217.95;34.25;;;7.90;99.90;;;;;;5077293;28;20063;-85
2021/12/29 09:21:20;;;;;;;240.63;34.67;;;8.10;99.90;;;;;;5109884;28;20395;-86
2021/12/29 09:23:46;;;;;;;169.23;30.20;;;7.90;99.90;;;;;;5093205;28;20186;-87
2021/12/29 09:26:13;;;;;;;202.75;31.42;;;8.00;99.90;;;;;;5093764;28;20399;-88
2021/12/29 09:28:39;;;;;;;187.18;29.95;;;7.90;99.90;;;;;;5076026;28;20130;-87
2021/12/29 09:31:05;;;;;;;157.82;27.92;;;7.90;99.90;;;;;;5093463;28;20047;-86
2021/12/29 09:33:30;;;;;;;148.80;27.40;;;7.90;99.90;;;;;;5109773;28;20124;-88
2021/12/29 09:36:02;;;;;;;193.88;30.65;;;7.90;99.90;;;;;;5110301;28;20156;-88
2021/12/29 09:38:29;;;;;;;139.45;28.15;;;8.00;99.90;;;;;;5093739;28;20055;-89
2021/12/29 09:40:54;;;;;;;172.45;29.85;;;8.00;99.90;;;;;;5093664;28;20047;-89
2021/12/29 09:43:21;;;;;;;156.85;29.13;;;8.00;99.90;;;;;;5093812;28;20067;-87
2021/12/29 09:45:47;;;;;;;181.45;29.42;;;8.00;99.90;;;;;;5096451;28;20055;-87
2021/12/29 09:48:14;;;;;;;191.38;29.35;;;8.00;99.90;;;;;;5095281;28;20443;-87
2021/12/29 09:50:39;;;;;;;213.27;31.23;;;8.10;99.90;;;;;;5078953;28;20438;-87
2021/12/29 09:53:06;;;;;;;183.02;28.85;;;8.10;99.90;;;;;;5113870;28;20054;-88
2021/12/29 09:55:32;;;;;;;187.95;28.70;;;8.10;99.90;;;;;;5076125;28;20121;-85
2021/12/29 09:57:58;;;;;;;248.60;30.67;;;8.10;99.90;;;;;;5093539;28;20123;-86
2021/12/29 10:00:25;;;;;;;230.65;28.58;;;8.10;99.90;;;;;;5093514;28;20126;-90
2021/12/29 10:02:51;;;;;;;196.73;27.33;;;8.20;99.90;;;;;;5109314;28;20110;-88
2021/12/29 10:05:17;;;;;;;186.38;26.60;;;8.20;99.90;;;;;;5080366;28;20052;-88
2021/12/29 10:07:43;;;;;;;189.65;26.55;;;8.30;99.90;;;;;;5095813;28;20047;-89
2021/12/29 10:10:18;;;;;;;152.15;25.88;;;8.20;99.90;;;;;;5096992;28;20088;-88
2021/12/29 10:12:45;;;;;;;106.93;23.73;;;8.20;99.90;;;;;;5076293;28;20110;-86
2021/12/29 10:15:11;;;;;;;73.55;19.30;;;8.70;99.90;;;;;;5111041;28;20059;-86
2021/12/29 10:17:36;;;;;;;58.17;16.38;;;8.30;99.90;;;;;;5109283;28;20051;-86
2021/12/29 10:20:06;;;;;;;62.42;17.10;;;8.30;99.90;;;;;;5109877;28;20050;-86
2021/12/29 10:22:32;;;;;;;75.63;18.23;;;8.40;99.90;;;;;;5075855;28;20086;-84
2021/12/29 10:25:19;;;;;;;53.60;16.10;;;8.40;99.90;;;;;;5093090;28;20051;-84
2021/12/29 10:27:44;;;;;;;59.17;16.17;;;8.30;99.90;;;;;;5076491;28;20059;-87
2021/12/29 10:30:22;;;;;;;57.17;15.35;;;8.40;99.90;;;;;;5110119;28;20047;-86
2021/12/29 10:32:47;;;;;;;42.55;13.85;;;8.40;99.90;;;;;;5108692;28;20567;-85
2021/12/29 10:35:21;;;;;;;42.63;13.10;;;8.50;99.90;;;;;;5113231;28;20051;-85
2021/12/29 10:37:47;;;;;;;43.75;13.50;;;8.40;99.90;;;;;;5103460;28;20063;-83
2021/12/29 10:40:23;;;;;;;37.30;12.65;;;8.40;99.90;;;;;;5100479;28;20059;-86
2021/12/29 10:42:56;;;;;;;40.95;13.00;;;8.40;99.90;;;;;;5112794;28;20059;-86
2021/12/29 10:45:33;;;;;;;36.35;12.15;;;8.40;99.90;;;;;;5080326;28;20056;-86
2021/12/29 10:47:58;;;;;;;44.08;14.35;;;8.40;99.90;;;;;;5095440;28;20047;-86
2021/12/29 10:50:25;;;;;;;37.78;12.38;;;8.40;99.90;;;;;;5113351;28;20052;-85
2021/12/29 10:52:53;;;;;;;39.15;12.65;;;8.40;99.90;;;;;;5095874;28;20048;-87
2021/12/29 10:55:22;;;;;;;41.50;12.95;;;8.40;99.90;;;;;;5079360;28;20138;-86
2021/12/29 10:58:03;;;;;;;41.45;12.15;;;8.40;99.90;;;;;;5112730;28;20054;-85
2021/12/29 11:00:29;;;;;;;33.65;12.75;;;8.40;99.90;;;;;;5096802;28;20485;-85
2021/12/29 11:02:57;;;;;;;31.52;12.45;;;8.40;99.90;;;;;;5095237;28;20052;-86
2021/12/29 11:05:23;;;;;;;44.97;13.52;;;8.40;99.90;;;;;;5113960;28;20467;-85
2021/12/29 11:07:48;;;;;;;39.15;13.02;;;8.30;99.90;;;;;;5112141;28;20134;-85
2021/12/29 11:10:19;;;;;;;36.28;13.38;;;8.40;99.90;;;;;;5096733;28;20040;-86
2021/12/29 11:12:53;;;;;;;43.33;13.57;;;8.30;99.90;;;;;;5095994;28;20055;-86
2021/12/29 11:15:25;;;;;;;39.70;15.13;;;8.30;99.90;;;;;;5113409;28;20057;-86
2021/12/29 11:17:52;;;;;;;53.53;14.35;;;8.30;99.90;;;;;;5113271;27;20560;-87
2021/12/29 11:20:19;;;;;;;39.70;13.68;;;8.30;99.90;;;;;;5112865;28;20052;-86
2021/12/29 11:22:44;;;;;;;39.13;15.02;;;8.20;99.90;;;;;;5095806;28;20126;-88
2021/12/29 11:25:10;;;;;;;38.78;14.10;;;8.20;99.90;;;;;;5113046;28;20130;-87
2021/12/29 11:27:36;;;;;;;36.92;14.30;;;8.30;99.90;;;;;;5112938;28;20079;-86
2021/12/29 11:30:09;;;;;;;37.33;14.27;;;8.30;99.90;;;;;;5129602;27;20373;-87
2021/12/29 11:32:40;;;;;;;34.65;13.88;;;8.30;99.90;;;;;;5112602;28;20143;-87
2021/12/29 11:35:13;;;;;;;51.40;15.82;;;8.30;99.90;;;;;;5113414;27;20055;-89
2021/12/29 11:37:46;;;;;;;50.33;16.38;;;8.30;99.90;;;;;;5079577;28;20056;-86
2021/12/29 11:40:15;;;;;;;51.58;16.52;;;8.30;99.90;;;;;;5095571;28;20040;-86
2021/12/29 11:42:42;;;;;;;40.85;15.40;;;8.30;99.90;;;;;;5112013;28;20097;-86
2021/12/29 11:45:08;;;;;;;49.90;17.02;;;9.00;99.90;;;;;;5112222;28;20059;-86
2021/12/29 11:47:33;;;;;;;55.63;18.02;;;8.30;99.90;;;;;;5112148;28;20147;-85
2021/12/29 11:49:59;;;;;;;49.63;16.67;;;8.80;99.90;;;;;;5111674;28;20051;-86
2021/12/29 11:53:10;;;;;;;48.33;17.08;;;8.40;99.90;;;;;;5112463;28;20054;-86
2021/12/29 11:56:08;;;;;;;55.58;17.85;;;8.40;99.90;;;;;;5078243;28;20058;-87
2021/12/29 11:58:41;;;;;;;43.80;15.23;;;8.50;99.90;;;;;;5078275;28;20420;-85
2021/12/29 12:01:14;;;;;;;50.90;17.67;;;8.50;99.90;;;;;;5112062;28;20399;-88
2021/12/29 12:03:44;;;;;;;48.13;17.55;;;8.60;99.90;;;;;;5112303;28;20062;-87
2021/12/29 12:06:27;;;;;;;53.22;16.70;;;8.60;99.90;;;;;;5095015;28;20495;-88
2021/12/29 12:09:10;;;;;;;46.45;16.83;;;8.60;99.90;;;;;;5078034;28;20051;-88
2021/12/29 12:11:37;;;;;;;50.17;16.67;;;8.70;99.90;;;;;;5112113;28;20461;-85
2021/12/29 12:14:03;;;;;;;46.13;16.48;;;8.70;99.90;;;;;;5094565;28;20047;-86
2021/12/29 12:16:29;;;;;;;49.10;16.88;;;8.70;99.90;;;;;;5112143;28;20074;-86
2021/12/29 12:18:57;;;;;;;50.95;16.73;;;8.70;99.90;;;;;;5094142;28;20055;-85
2021/12/29 12:21:29;;;;;;;51.83;17.52;;;8.60;99.90;;;;;;5111671;28;20131;-86
2021/12/29 12:23:56;;;;;;;45.63;17.67;;;8.60;99.90;;;;;;5094155;28;20399;-86
2021/12/29 12:26:25;;;;;;;44.40;16.73;;;8.60;99.90;;;;;;5111202;28;20043;-87
2021/12/29 12:28:52;;;;;;;48.33;17.20;;;8.60;99.90;;;;;;5094894;28;20058;-86
2021/12/29 12:31:26;;;;;;;39.88;16.27;;;8.70;99.90;;;;;;5094708;28;20111;-86
2021/12/29 12:33:53;;;;;;;38.40;15.77;;;8.60;99.90;;;;;;5093921;28;20435;-85